Time;durP1;ratioP1;P1;durP2;ratioP2;P2;SDS_P1;SDS_P2;PMS_P1;PMS_P2;Temp;Humidity;BMP_temperature;BMP_pressure;BME280_temperature;BME280_humidity;BME280_pressure;Samples;Min_cycle;Max_cycle;Signal;HPM_P1;HPM_P2
2023/06/03 00:02:14;;;;;;;10.05;3.70;;;;;;;;;;5052815;28;20113;-76
2023/06/03 00:04:41;;;;;;;8.75;3.50;;;;;;;;;;5049890;28;20021;-76
2023/06/03 00:07:08;;;;;;;13.32;3.90;;;;;;;;;;5063264;28;20021;-76
2023/06/03 00:09:34;;;;;;;14.32;3.20;;;;;;;;;;5061584;28;20045;-76
2023/06/03 00:12:00;;;;;;;9.32;3.22;;;;;;;;;;5049579;28;20025;-76
2023/06/03 00:14:26;;;;;;;8.15;2.83;;;;;;;;;;5068769;28;20032;-76
2023/06/03 00:16:52;;;;;;;11.55;5.22;;;;;;;;;;5068183;28;20034;-75
2023/06/03 00:19:19;;;;;;;13.23;4.38;;;;;;;;;;5068458;28;20113;-75
2023/06/03 00:21:45;;;;;;;11.45;3.80;;;;;;;;;;5067653;28;20029;-77
2023/06/03 00:24:13;;;;;;;14.68;3.40;;;;;;;;;;5055573;28;20017;-76
2023/06/03 00:26:39;;;;;;;10.65;5.13;;;;;;;;;;5051002;28;20029;-78
2023/06/03 00:29:05;;;;;;;17.33;4.35;;;;;;;;;;5067033;28;20039;-78
2023/06/03 00:31:31;;;;;;;13.50;4.80;;;;;;;;;;5063260;28;20029;-75
2023/06/03 00:33:57;;;;;;;14.90;4.63;;;;;;;;;;5068734;28;20414;-76
2023/06/03 00:36:23;;;;;;;11.38;4.35;;;;;;;;;;5045605;28;20692;-75
2023/06/03 00:38:49;;;;;;;11.60;3.60;;;;;;;;;;5050605;28;20044;-76
2023/06/03 00:41:16;;;;;;;11.10;3.65;;;;;;;;;;5067871;28;20031;-78
2023/06/03 00:43:42;;;;;;;12.38;3.75;;;;;;;;;;5058774;28;20485;-76
2023/06/03 00:46:10;;;;;;;10.88;4.63;;;;;;;;;;5043984;28;20548;-76
2023/06/03 00:48:37;;;;;;;12.23;3.28;;;;;;;;;;5064517;28;20457;-79
2023/06/03 00:51:03;;;;;;;11.90;4.10;;;;;;;;;;5052408;28;20522;-78
2023/06/03 00:53:29;;;;;;;11.32;4.50;;;;;;;;;;5063727;28;20134;-76
2023/06/03 00:55:55;;;;;;;11.80;4.07;;;;;;;;;;5069496;28;20032;-77
2023/06/03 00:58:21;;;;;;;11.35;3.50;;;;;;;;;;5060460;28;20032;-77
2023/06/03 01:00:48;;;;;;;8.60;3.47;;;;;;;;;;5069889;28;20029;-77
2023/06/03 01:03:14;;;;;;;12.65;4.20;;;;;;;;;;5071703;28;20027;-77
2023/06/03 01:05:45;;;;;;;9.45;4.68;;;;;;;;;;5058531;28;20048;-77
2023/06/03 01:08:27;;;;;;;8.65;2.95;;;;;;;;;;5059695;28;20025;-79
2023/06/03 01:11:02;;;;;;;9.95;3.58;;;;;;;;;;5058083;28;20036;-77
2023/06/03 01:14:03;;;;;;;10.15;3.58;;;;;;;;;;5067530;28;20082;-76
2023/06/03 01:16:32;;;;;;;7.10;3.08;;;;;;;;;;4970015;28;20050;-75
2023/06/03 01:19:00;;;;;;;10.15;3.60;;;;;;;;;;5045200;28;20040;-75
2023/06/03 01:21:34;;;;;;;8.10;2.60;;;;;;;;;;5056651;28;20121;-75
2023/06/03 01:24:00;;;;;;;7.22;3.25;;;;;;;;;;5060533;28;20021;-75
2023/06/03 01:26:28;;;;;;;6.28;2.53;;;;;;;;;;5058451;28;20029;-76
2023/06/03 01:28:54;;;;;;;8.43;3.17;;;;;;;;;;5053145;28;20028;-75
2023/06/03 01:31:20;;;;;;;8.10;3.22;;;;;;;;;;5070495;28;20113;-75
2023/06/03 01:33:47;;;;;;;9.27;3.00;;;;;;;;;;5062716;28;20032;-77
2023/06/03 01:36:14;;;;;;;7.72;3.15;;;;;;;;;;5050912;28;20300;-75
2023/06/03 01:38:40;;;;;;;7.45;3.05;;;;;;;;;;5051744;28;20025;-75
2023/06/03 01:41:07;;;;;;;5.97;2.95;;;;;;;;;;5052051;28;20043;-76
2023/06/03 01:43:33;;;;;;;14.38;3.85;;;;;;;;;;5064888;28;20796;-76
2023/06/03 01:45:59;;;;;;;8.68;3.50;;;;;;;;;;5057173;28;20033;-76
2023/06/03 01:48:25;;;;;;;6.72;3.30;;;;;;;;;;5070346;28;20028;-76
2023/06/03 01:50:52;;;;;;;7.05;2.30;;;;;;;;;;5070150;28;20033;-77
2023/06/03 01:53:18;;;;;;;7.15;2.28;;;;;;;;;;5053137;28;20028;-75
2023/06/03 01:55:44;;;;;;;9.60;2.55;;;;;;;;;;5056292;28;20052;-76
2023/06/03 01:58:10;;;;;;;7.28;2.70;;;;;;;;;;5050661;28;20542;-77
2023/06/03 02:00:36;;;;;;;5.93;2.58;;;;;;;;;;5054815;28;20118;-75
2023/06/03 02:03:04;;;;;;;15.85;2.60;;;;;;;;;;5069841;28;20376;-76
2023/06/03 02:05:30;;;;;;;8.27;2.47;;;;;;;;;;5057961;28;20104;-76
2023/06/03 02:07:56;;;;;;;6.88;2.35;;;;;;;;;;5059613;28;20116;-75
2023/06/03 02:10:22;;;;;;;7.45;3.03;;;;;;;;;;5058227;28;20032;-76
2023/06/03 02:12:49;;;;;;;9.82;2.72;;;;;;;;;;5061291;28;20029;-77
2023/06/03 02:15:15;;;;;;;8.00;3.00;;;;;;;;;;5050275;28;20028;-75
2023/06/03 02:17:43;;;;;;;7.72;2.65;;;;;;;;;;5052503;28;21736;-76
2023/06/03 02:20:10;;;;;;;8.15;2.63;;;;;;;;;;5048891;28;20029;-77
2023/06/03 02:22:37;;;;;;;8.25;2.45;;;;;;;;;;5050498;28;20049;-76
2023/06/03 02:25:03;;;;;;;7.63;2.60;;;;;;;;;;5065879;28;20560;-76
2023/06/03 02:27:30;;;;;;;7.93;2.78;;;;;;;;;;5065901;28;20911;-76
2023/06/03 02:29:56;;;;;;;8.30;2.58;;;;;;;;;;5069558;28;20405;-76
2023/06/03 02:32:22;;;;;;;7.03;2.58;;;;;;;;;;5062815;28;20033;-76
2023/06/03 02:34:50;;;;;;;7.82;2.42;;;;;;;;;;5061901;28;20082;-76
2023/06/03 02:37:16;;;;;;;7.80;2.15;;;;;;;;;;5069977;28;20055;-75
2023/06/03 02:39:42;;;;;;;7.88;2.22;;;;;;;;;;5057532;28;20040;-76
2023/06/03 02:42:09;;;;;;;7.05;2.03;;;;;;;;;;5058718;28;20029;-76
2023/06/03 02:44:35;;;;;;;7.88;2.10;;;;;;;;;;5063539;28;20557;-76
2023/06/03 02:47:01;;;;;;;7.15;2.45;;;;;;;;;;5065371;28;20059;-76
2023/06/03 02:49:27;;;;;;;6.30;1.80;;;;;;;;;;5051822;28;20403;-77
2023/06/03 02:51:53;;;;;;;10.27;3.20;;;;;;;;;;5055578;28;20032;-75
2023/06/03 02:54:20;;;;;;;8.93;2.80;;;;;;;;;;5059355;28;20032;-76
2023/06/03 02:56:46;;;;;;;10.40;2.55;;;;;;;;;;5063679;28;20033;-75
2023/06/03 02:59:12;;;;;;;7.15;1.95;;;;;;;;;;5062075;28;20052;-76
2023/06/03 03:01:38;;;;;;;7.47;3.05;;;;;;;;;;5063350;28;20024;-77
2023/06/03 03:04:04;;;;;;;10.50;2.63;;;;;;;;;;5069323;28;20112;-76
2023/06/03 03:06:31;;;;;;;7.07;2.42;;;;;;;;;;5062662;28;20028;-76
2023/06/03 03:08:57;;;;;;;6.95;2.00;;;;;;;;;;5052526;28;20024;-77
2023/06/03 03:11:24;;;;;;;8.48;2.45;;;;;;;;;;5069296;28;20024;-75
2023/06/03 03:13:50;;;;;;;7.47;2.53;;;;;;;;;;5060025;28;20055;-76
2023/06/03 03:16:18;;;;;;;8.25;2.20;;;;;;;;;;5065289;28;20032;-78
2023/06/03 03:18:44;;;;;;;7.20;2.20;;;;;;;;;;5069340;28;20055;-76
2023/06/03 03:21:10;;;;;;;7.07;2.50;;;;;;;;;;5062486;28;20037;-75
2023/06/03 03:23:37;;;;;;;8.10;2.10;;;;;;;;;;5054372;28;20071;-75
2023/06/03 03:26:03;;;;;;;10.63;2.78;;;;;;;;;;5042321;28;20446;-76
2023/06/03 03:28:31;;;;;;;10.73;2.80;;;;;;;;;;5054086;28;20105;-76
2023/06/03 03:30:57;;;;;;;6.10;2.10;;;;;;;;;;5039117;28;20445;-77
2023/06/03 03:33:23;;;;;;;6.47;2.40;;;;;;;;;;5067797;28;20522;-75
2023/06/03 03:35:50;;;;;;;6.85;2.45;;;;;;;;;;5062990;28;20052;-76
2023/06/03 03:38:16;;;;;;;7.90;2.38;;;;;;;;;;5053938;28;20116;-77
2023/06/03 03:40:43;;;;;;;7.13;3.10;;;;;;;;;;5050160;28;20429;-75
2023/06/03 03:43:19;;;;;;;7.40;2.55;;;;;;;;;;5068016;28;20047;-77
2023/06/03 03:45:45;;;;;;;5.18;2.25;;;;;;;;;;5056606;28;20033;-76
2023/06/03 03:48:15;;;;;;;7.20;2.60;;;;;;;;;;5060836;28;20116;-75
2023/06/03 03:50:45;;;;;;;6.53;2.28;;;;;;;;;;5063729;28;20040;-75
2023/06/03 03:53:11;;;;;;;;;;;;;;;;;;5068127;28;20205;-75
2023/06/03 03:55:42;;;;;;;7.03;1.67;;;;;;;;;;5050080;28;20382;-76
2023/06/03 03:58:27;;;;;;;5.72;1.67;;;;;;;;;;5067467;28;20190;-76
2023/06/03 04:00:54;;;;;;;7.25;1.90;;;;;;;;;;5066706;28;20039;-75
2023/06/03 04:03:23;;;;;;;5.65;2.03;;;;;;;;;;5068543;28;20111;-76
2023/06/03 04:05:49;;;;;;;7.38;2.20;;;;;;;;;;5061340;28;20103;-77
2023/06/03 04:08:36;;;;;;;5.88;1.85;;;;;;;;;;5048395;28;20021;-76
2023/06/03 04:11:03;;;;;;;8.63;2.35;;;;;;;;;;5047299;28;20044;-76
2023/06/03 04:13:29;;;;;;;5.32;1.67;;;;;;;;;;5050291;28;20383;-77
2023/06/03 04:16:00;;;;;;;8.02;2.30;;;;;;;;;;5068413;28;20032;-75
2023/06/03 04:18:26;;;;;;;4.38;1.60;;;;;;;;;;5050849;28;20491;-76
2023/06/03 04:20:56;;;;;;;4.97;1.52;;;;;;;;;;5051226;28;20863;-75
2023/06/03 04:23:22;;;;;;;7.63;2.53;;;;;;;;;;5053123;28;20021;-76
2023/06/03 04:25:50;;;;;;;5.60;1.55;;;;;;;;;;5052816;28;20029;-76
2023/06/03 04:28:16;;;;;;;4.32;1.50;;;;;;;;;;5064767;28;20539;-76
2023/06/03 04:30:42;;;;;;;6.38;1.90;;;;;;;;;;5057642;28;20045;-76
2023/06/03 04:33:08;;;;;;;4.32;1.90;;;;;;;;;;5052364;28;20365;-76
2023/06/03 04:35:34;;;;;;;5.18;1.80;;;;;;;;;;5071674;28;20089;-74
2023/06/03 04:38:00;;;;;;;4.32;1.60;;;;;;;;;;5072153;28;20483;-76
2023/06/03 04:40:29;;;;;;;5.15;1.75;;;;;;;;;;5059091;28;20394;-76
2023/06/03 04:42:55;;;;;;;5.88;1.95;;;;;;;;;;5071584;28;20024;-76
2023/06/03 04:45:23;;;;;;;4.25;1.70;;;;;;;;;;5034483;28;20491;-75
2023/06/03 04:47:52;;;;;;;6.00;1.75;;;;;;;;;;5054150;28;20028;-75
2023/06/03 04:50:20;;;;;;;4.85;1.90;;;;;;;;;;5058473;28;20029;-76
2023/06/03 04:52:49;;;;;;;4.93;2.13;;;;;;;;;;5053848;28;20028;-75
2023/06/03 04:55:15;;;;;;;5.40;1.98;;;;;;;;;;5072123;28;20115;-76
2023/06/03 04:57:45;;;;;;;4.28;1.88;;;;;;;;;;5053518;28;20021;-75
2023/06/03 05:00:14;;;;;;;8.70;1.60;;;;;;;;;;5060279;28;20040;-75
2023/06/03 05:02:44;;;;;;;3.63;1.50;;;;;;;;;;5071733;28;20021;-75
2023/06/03 05:05:11;;;;;;;4.40;1.90;;;;;;;;;;5050573;28;20052;-74
2023/06/03 05:07:37;;;;;;;5.65;1.90;;;;;;;;;;5055751;28;20029;-75
2023/06/03 05:10:03;;;;;;;4.95;1.75;;;;;;;;;;5051749;28;20116;-76
2023/06/03 05:12:29;;;;;;;3.95;1.67;;;;;;;;;;5054177;28;20036;-75
2023/06/03 05:14:55;;;;;;;4.85;1.73;;;;;;;;;;5053463;28;20032;-76
2023/06/03 05:17:21;;;;;;;2.78;1.42;;;;;;;;;;5055632;28;20029;-76
2023/06/03 05:19:47;;;;;;;4.07;1.52;;;;;;;;;;5050948;28;20464;-75
2023/06/03 05:22:13;;;;;;;4.50;1.33;;;;;;;;;;5065202;28;20036;-77
2023/06/03 05:24:40;;;;;;;4.35;1.58;;;;;;;;;;5068207;28;20031;-77
2023/06/03 05:27:06;;;;;;;5.22;1.52;;;;;;;;;;5049282;28;20025;-76
2023/06/03 05:29:32;;;;;;;5.15;1.13;;;;;;;;;;5050565;28;20064;-76
2023/06/03 05:31:58;;;;;;;2.47;1.00;;;;;;;;;;5051881;28;20108;-76
2023/06/03 05:34:24;;;;;;;2.90;1.23;;;;;;;;;;5051798;28;20516;-77
2023/06/03 05:36:50;;;;;;;4.05;1.63;;;;;;;;;;5051369;28;20121;-76
2023/06/03 05:39:16;;;;;;;3.75;1.35;;;;;;;;;;5052131;28;20028;-76
2023/06/03 05:41:42;;;;;;;5.38;1.40;;;;;;;;;;5054933;28;20021;-75
2023/06/03 05:44:08;;;;;;;3.63;1.08;;;;;;;;;;5051491;28;20079;-76
2023/06/03 05:46:43;;;;;;;4.15;1.48;;;;;;;;;;5061663;28;20032;-75
2023/06/03 05:49:09;;;;;;;2.95;1.50;;;;;;;;;;5062227;28;20024;-74
2023/06/03 05:51:34;;;;;;;8.25;1.40;;;;;;;;;;5062746;28;20513;-76
2023/06/03 05:54:01;;;;;;;3.22;1.10;;;;;;;;;;5058150;28;20048;-78
2023/06/03 05:56:27;;;;;;;6.00;1.45;;;;;;;;;;5061403;28;20028;-76
2023/06/03 05:58:53;;;;;;;3.05;1.20;;;;;;;;;;5062673;28;20055;-77
2023/06/03 06:01:19;;;;;;;5.80;1.80;;;;;;;;;;5058354;28;20049;-75
2023/06/03 06:03:45;;;;;;;3.97;1.48;;;;;;;;;;5059459;28;20032;-75
2023/06/03 06:06:11;;;;;;;4.75;1.58;;;;;;;;;;5057222;28;20021;-76
2023/06/03 06:08:37;;;;;;;4.10;1.10;;;;;;;;;;5040374;28;20029;-75
2023/06/03 06:11:03;;;;;;;3.58;1.50;;;;;;;;;;5068564;28;20388;-75
2023/06/03 06:13:29;;;;;;;4.35;1.30;;;;;;;;;;5060865;28;20021;-76
2023/06/03 06:15:58;;;;;;;8.18;2.03;;;;;;;;;;5061492;28;20020;-77
2023/06/03 06:18:24;;;;;;;6.47;1.83;;;;;;;;;;5064183;28;20025;-77
2023/06/03 06:20:50;;;;;;;10.38;2.20;;;;;;;;;;5065632;28;20025;-76
2023/06/03 06:23:16;;;;;;;8.23;1.77;;;;;;;;;;5064763;28;20442;-78
2023/06/03 06:25:49;;;;;;;10.93;2.70;;;;;;;;;;5070211;28;20062;-76
2023/06/03 06:28:18;;;;;;;4.93;1.08;;;;;;;;;;5059796;28;20115;-77
2023/06/03 06:30:45;;;;;;;7.40;1.47;;;;;;;;;;5064320;28;20127;-75
2023/06/03 06:33:14;;;;;;;4.80;1.33;;;;;;;;;;5061116;28;20422;-76
2023/06/03 06:35:40;;;;;;;7.85;1.90;;;;;;;;;;5055481;28;20048;-75
2023/06/03 06:38:06;;;;;;;4.65;1.02;;;;;;;;;;5063756;28;20035;-76
2023/06/03 06:40:34;;;;;;;6.10;1.42;;;;;;;;;;5057110;28;20025;-79
2023/06/03 06:43:00;;;;;;;5.00;0.88;;;;;;;;;;5071207;28;20461;-76
2023/06/03 06:45:27;;;;;;;5.88;1.25;;;;;;;;;;5062482;28;20476;-77
2023/06/03 06:48:04;;;;;;;4.53;1.27;;;;;;;;;;5065092;28;20053;-74
2023/06/03 06:50:49;;;;;;;2.70;1.15;;;;;;;;;;5063936;28;20036;-76
2023/06/03 06:53:18;;;;;;;3.80;1.20;;;;;;;;;;5063842;28;20028;-76
2023/06/03 06:55:47;;;;;;;1.90;0.80;;;;;;;;;;5050743;28;20052;-76
2023/06/03 06:58:13;;;;;;;2.60;0.90;;;;;;;;;;5056702;28;20039;-75
2023/06/03 07:00:40;;;;;;;3.45;1.00;;;;;;;;;;5056394;28;20033;-76
2023/06/03 07:03:06;;;;;;;4.40;1.27;;;;;;;;;;5060314;28;20031;-77
2023/06/03 07:05:34;;;;;;;2.58;0.75;;;;;;;;;;5062433;28;20028;-77
2023/06/03 07:08:00;;;;;;;2.67;1.00;;;;;;;;;;5034587;28;20032;-76
2023/06/03 07:10:27;;;;;;;3.78;1.15;;;;;;;;;;5048754;28;20037;-77
2023/06/03 07:12:53;;;;;;;1.85;0.80;;;;;;;;;;5048783;28;20135;-79
2023/06/03 07:15:19;;;;;;;3.50;0.80;;;;;;;;;;5053009;28;20774;-76
2023/06/03 07:17:52;;;;;;;3.28;0.82;;;;;;;;;;5064326;28;20040;-77
2023/06/03 07:20:22;;;;;;;3.45;1.05;;;;;;;;;;5058841;28;20063;-76
2023/06/03 07:22:49;;;;;;;2.45;1.05;;;;;;;;;;5055747;28;20573;-76
2023/06/03 07:25:33;;;;;;;1.60;0.70;;;;;;;;;;5057418;28;20028;-76
2023/06/03 07:28:00;;;;;;;2.78;0.90;;;;;;;;;;5058350;28;20111;-76
2023/06/03 07:30:26;;;;;;;2.28;0.77;;;;;;;;;;5059024;28;20033;-77
2023/06/03 07:32:58;;;;;;;2.40;0.90;;;;;;;;;;5057827;28;20024;-77
2023/06/03 07:35:27;;;;;;;3.45;1.02;;;;;;;;;;5058291;28;20475;-77
2023/06/03 07:37:54;;;;;;;4.28;1.05;;;;;;;;;;5041218;28;20361;-75
2023/06/03 07:40:22;;;;;;;2.80;0.90;;;;;;;;;;5058004;28;20017;-77
2023/06/03 07:42:49;;;;;;;2.85;0.90;;;;;;;;;;5058081;28;20024;-75
2023/06/03 07:45:15;;;;;;;2.88;1.10;;;;;;;;;;5059956;28;20024;-76
2023/06/03 07:47:41;;;;;;;1.98;0.90;;;;;;;;;;5059813;28;20090;-76
2023/06/03 07:50:22;;;;;;;1.88;0.85;;;;;;;;;;5041723;28;20232;-76
2023/06/03 07:52:51;;;;;;;2.78;1.17;;;;;;;;;;5055436;28;20107;-76
2023/06/03 07:55:17;;;;;;;3.00;1.08;;;;;;;;;;5057690;28;20024;-79
2023/06/03 07:57:46;;;;;;;2.35;1.00;;;;;;;;;;5056491;28;20036;-76
2023/06/03 08:00:15;;;;;;;4.30;1.10;;;;;;;;;;5042286;28;20569;-77
2023/06/03 08:02:41;;;;;;;2.80;1.15;;;;;;;;;;5062619;28;20035;-76
2023/06/03 08:05:07;;;;;;;2.70;0.90;;;;;;;;;;5065171;28;20123;-77
2023/06/03 08:07:33;;;;;;;1.90;0.93;;;;;;;;;;5061914;28;20032;-76
2023/06/03 08:09:59;;;;;;;2.35;0.75;;;;;;;;;;5059341;28;20071;-76
2023/06/03 08:12:30;;;;;;;23.73;3.97;;;;;;;;;;5057016;28;20385;-77
2023/06/03 08:15:07;;;;;;;6.95;1.25;;;;;;;;;;5057311;28;20060;-79
2023/06/03 08:17:43;;;;;;;4.88;1.20;;;;;;;;;;5062408;28;20139;-79
2023/06/03 08:20:10;;;;;;;13.52;1.58;;;;;;;;;;5055748;28;20020;-80
2023/06/03 08:22:43;;;;;;;7.82;1.63;;;;;;;;;;5044525;28;20478;-76
2023/06/03 08:25:09;;;;;;;4.45;1.13;;;;;;;;;;5053231;28;20029;-78
2023/06/03 08:27:36;;;;;;;3.92;0.90;;;;;;;;;;5042565;28;20025;-76
2023/06/03 08:30:05;;;;;;;1.58;0.88;;;;;;;;;;5059683;28;20037;-73
2023/06/03 08:32:35;;;;;;;3.50;1.10;;;;;;;;;;5061459;28;20039;-75
2023/06/03 08:35:01;;;;;;;3.53;0.85;;;;;;;;;;5048557;28;20267;-74
2023/06/03 08:37:27;;;;;;;3.80;0.90;;;;;;;;;;5052726;28;20486;-78
2023/06/03 08:39:54;;;;;;;3.63;0.80;;;;;;;;;;5066592;28;20912;-78
2023/06/03 08:42:22;;;;;;;4.45;1.13;;;;;;;;;;5054349;28;20043;-75
2023/06/03 08:44:51;;;;;;;8.00;0.95;;;;;;;;;;5055489;28;20032;-74
2023/06/03 08:47:22;;;;;;;3.70;0.90;;;;;;;;;;5054953;28;20020;-76
2023/06/03 08:50:00;;;;;;;5.30;0.90;;;;;;;;;;5067615;28;20029;-76
2023/06/03 08:52:30;;;;;;;1.75;0.73;;;;;;;;;;5045496;28;20029;-75
2023/06/03 08:54:59;;;;;;;3.67;0.80;;;;;;;;;;5046219;28;20117;-75
2023/06/03 08:57:28;;;;;;;3.40;0.90;;;;;;;;;;5065624;28;20048;-74
2023/06/03 08:59:55;;;;;;;3.85;0.93;;;;;;;;;;5046023;28;20098;-72
2023/06/03 09:02:21;;;;;;;5.03;1.02;;;;;;;;;;5059698;28;20021;-75
2023/06/03 09:04:50;;;;;;;1.65;0.70;;;;;;;;;;5068129;28;20087;-75
2023/06/03 09:07:17;;;;;;;3.93;0.83;;;;;;;;;;5026221;28;20041;-76
2023/06/03 09:09:43;;;;;;;3.10;0.95;;;;;;;;;;5052022;28;20029;-75
2023/06/03 09:12:10;;;;;;;2.47;0.70;;;;;;;;;;5052539;28;20052;-76
2023/06/03 09:14:38;;;;;;;1.35;0.70;;;;;;;;;;5072012;28;20056;-76
2023/06/03 09:17:04;;;;;;;3.95;1.00;;;;;;;;;;5067206;28;20104;-76
2023/06/03 09:19:31;;;;;;;3.13;0.80;;;;;;;;;;5067976;28;20028;-75
2023/06/03 09:21:57;;;;;;;2.30;0.60;;;;;;;;;;5053231;28;20608;-76
2023/06/03 09:24:23;;;;;;;3.72;1.02;;;;;;;;;;5070612;28;20036;-75
2023/06/03 09:26:50;;;;;;;5.38;0.70;;;;;;;;;;5062778;28;20020;-74
2023/06/03 09:29:17;;;;;;;2.42;1.08;;;;;;;;;;5056495;28;20504;-74
2023/06/03 09:31:43;;;;;;;2.97;0.65;;;;;;;;;;5071327;28;20039;-76
2023/06/03 09:34:09;;;;;;;3.97;0.60;;;;;;;;;;5066644;28;20029;-77
2023/06/03 09:36:45;;;;;;;1.92;0.50;;;;;;;;;;5049841;28;20078;-74
2023/06/03 09:39:16;;;;;;;2.92;0.60;;;;;;;;;;5051034;28;20055;-75
2023/06/03 09:41:42;;;;;;;2.30;0.80;;;;;;;;;;5069820;28;20025;-75
2023/06/03 09:44:10;;;;;;;2.30;0.75;;;;;;;;;;5067796;28;20732;-78
2023/06/03 09:46:36;;;;;;;0.95;0.43;;;;;;;;;;5065726;28;20037;-73
2023/06/03 09:49:09;;;;;;;1.75;0.57;;;;;;;;;;5053983;28;20025;-76
2023/06/03 09:51:41;;;;;;;3.55;0.73;;;;;;;;;;5049621;28;20056;-77
2023/06/03 09:54:11;;;;;;;2.72;0.82;;;;;;;;;;5050746;28;20037;-74
2023/06/03 09:56:37;;;;;;;3.20;0.70;;;;;;;;;;5054700;28;20063;-76
2023/06/03 09:59:15;;;;;;;2.88;0.80;;;;;;;;;;5063949;28;20189;-73
2023/06/03 10:01:42;;;;;;;2.10;0.73;;;;;;;;;;5058004;28;20044;-76
2023/06/03 10:04:08;;;;;;;3.22;0.90;;;;;;;;;;5066843;28;20029;-78
2023/06/03 10:06:38;;;;;;;2.80;0.70;;;;;;;;;;5067169;28;20020;-76
2023/06/03 10:09:26;;;;;;;2.60;0.80;;;;;;;;;;5050915;28;20028;-72
2023/06/03 10:11:53;;;;;;;3.17;0.70;;;;;;;;;;5069083;28;20032;-75
2023/06/03 10:14:21;;;;;;;3.03;0.70;;;;;;;;;;5061456;28;20025;-76
2023/06/03 10:17:06;;;;;;;5.47;0.85;;;;;;;;;;5061575;28;20028;-76
2023/06/03 10:19:34;;;;;;;2.00;0.63;;;;;;;;;;5066614;28;20033;-75
2023/06/03 10:22:00;;;;;;;2.67;0.68;;;;;;;;;;5068992;28;20115;-74
2023/06/03 10:24:27;;;;;;;2.40;0.98;;;;;;;;;;5071133;28;20379;-76
2023/06/03 10:26:54;;;;;;;2.75;0.75;;;;;;;;;;5068062;28;20032;-75
2023/06/03 10:29:20;;;;;;;1.75;0.43;;;;;;;;;;5062997;28;20059;-76
2023/06/03 10:31:51;;;;;;;1.55;0.60;;;;;;;;;;5056585;28;20044;-76
2023/06/03 10:34:18;;;;;;;4.00;0.50;;;;;;;;;;5061401;28;20418;-77
2023/06/03 10:36:45;;;;;;;1.42;0.73;;;;;;;;;;5066642;28;20170;-77
2023/06/03 10:39:11;;;;;;;2.47;0.52;;;;;;;;;;5069690;28;20024;-79
2023/06/03 10:41:39;;;;;;;1.98;0.60;;;;;;;;;;5070693;28;20073;-77
2023/06/03 10:44:05;;;;;;;2.00;0.50;;;;;;;;;;5070142;28;20442;-75
2023/06/03 10:46:35;;;;;;;2.92;0.60;;;;;;;;;;5069511;28;20031;-75
2023/06/03 10:49:02;;;;;;;1.30;0.60;;;;;;;;;;5051767;28;20024;-77
2023/06/03 10:51:37;;;;;;;2.65;0.65;;;;;;;;;;5051849;28;20155;-79
2023/06/03 10:54:10;;;;;;;1.30;0.60;;;;;;;;;;5062723;28;20048;-79
2023/06/03 10:56:37;;;;;;;1.20;0.57;;;;;;;;;;5069094;28;20047;-79
2023/06/03 10:59:05;;;;;;;1.60;0.60;;;;;;;;;;5060221;28;20287;-82
2023/06/03 11:01:49;;;;;;;1.50;0.50;;;;;;;;;;5051242;28;20547;-77
2023/06/03 11:04:19;;;;;;;1.30;0.52;;;;;;;;;;5068557;28;20056;-76
2023/06/03 11:06:45;;;;;;;1.45;0.50;;;;;;;;;;5069264;28;20028;-76
2023/06/03 11:09:16;;;;;;;1.65;0.68;;;;;;;;;;5068600;28;20036;-76
2023/06/03 11:11:47;;;;;;;3.33;0.50;;;;;;;;;;5056544;28;20023;-76
2023/06/03 11:14:38;;;;;;;1.30;0.60;;;;;;;;;;5068328;28;20078;-76
2023/06/03 11:17:04;;;;;;;2.15;0.50;;;;;;;;;;5057908;28;20070;-77
2023/06/03 11:19:31;;;;;;;2.03;0.45;;;;;;;;;;5049270;28;20037;-79
2023/06/03 11:21:59;;;;;;;2.05;0.70;;;;;;;;;;5049934;28;20025;-76
2023/06/03 11:24:38;;;;;;;1.83;0.82;;;;;;;;;;5049050;28;20033;-79
2023/06/03 11:27:13;;;;;;;2.60;0.80;;;;;;;;;;5053071;28;20044;-79
2023/06/03 11:29:45;;;;;;;2.22;0.65;;;;;;;;;;5040396;28;20032;-77
2023/06/03 11:32:15;;;;;;;3.70;0.73;;;;;;;;;;5048677;28;20039;-75
2023/06/03 11:34:41;;;;;;;;;;;;;;;;;;5069698;28;20031;-76
2023/06/03 11:37:07;;;;;;;1.65;0.60;;;;;;;;;;5069159;28;20038;-77
2023/06/03 11:39:52;;;;;;;2.90;0.60;;;;;;;;;;5059983;28;20324;-78
2023/06/03 11:42:18;;;;;;;5.78;0.73;;;;;;;;;;5067388;28;20094;-77
2023/06/03 11:44:44;;;;;;;2.78;0.70;;;;;;;;;;5050497;28;20029;-78
2023/06/03 11:47:11;;;;;;;0.80;0.40;;;;;;;;;;5041440;28;20032;-78
2023/06/03 11:49:38;;;;;;;4.00;0.95;;;;;;;;;;5042193;28;20042;-77
2023/06/03 11:52:05;;;;;;;1.25;0.55;;;;;;;;;;5053824;28;20431;-77
2023/06/03 11:54:31;;;;;;;3.22;0.98;;;;;;;;;;5049858;28;20037;-77
2023/06/03 11:56:59;;;;;;;1.95;0.68;;;;;;;;;;5056613;28;20024;-80
2023/06/03 11:59:36;;;;;;;4.93;0.77;;;;;;;;;;5047066;28;20052;-79
2023/06/03 12:02:06;;;;;;;1.67;0.73;;;;;;;;;;5064223;28;20078;-76
2023/06/03 12:04:32;;;;;;;3.38;0.82;;;;;;;;;;5058941;28;20028;-77
2023/06/03 12:06:59;;;;;;;2.75;0.98;;;;;;;;;;5058589;28;20028;-75
2023/06/03 12:09:26;;;;;;;3.30;0.50;;;;;;;;;;5056658;28;20025;-76
2023/06/03 12:11:54;;;;;;;3.58;1.02;;;;;;;;;;5066030;28;20027;-74
2023/06/03 12:14:24;;;;;;;3.45;0.90;;;;;;;;;;5065840;28;20036;-77
2023/06/03 12:16:51;;;;;;;5.63;1.13;;;;;;;;;;5037445;28;20424;-75
2023/06/03 12:19:18;;;;;;;2.95;0.70;;;;;;;;;;5066931;28;20494;-75
2023/06/03 12:21:44;;;;;;;1.25;0.60;;;;;;;;;;5040310;28;20061;-75
2023/06/03 12:24:14;;;;;;;5.68;0.77;;;;;;;;;;5048609;28;20394;-75
2023/06/03 12:26:41;;;;;;;2.80;0.57;;;;;;;;;;5068186;28;20020;-75
2023/06/03 12:29:11;;;;;;;1.27;0.63;;;;;;;;;;5064456;28;20028;-75
2023/06/03 12:31:37;;;;;;;6.70;1.23;;;;;;;;;;5058717;28;20037;-74
2023/06/03 12:34:05;;;;;;;1.75;0.70;;;;;;;;;;5068150;28;20028;-76
2023/06/03 12:36:46;;;;;;;2.95;0.80;;;;;;;;;;5050550;28;20020;-75
2023/06/03 12:39:12;;;;;;;4.65;0.73;;;;;;;;;;5048959;28;20368;-76
2023/06/03 12:41:38;;;;;;;3.58;0.80;;;;;;;;;;5071608;28;20032;-75
2023/06/03 12:44:05;;;;;;;1.58;0.63;;;;;;;;;;5052607;28;20490;-74
2023/06/03 12:46:31;;;;;;;1.85;0.60;;;;;;;;;;5060516;28;20029;-75
2023/06/03 12:49:12;;;;;;;2.25;0.73;;;;;;;;;;5066156;28;20134;-75
2023/06/03 12:51:38;;;;;;;3.17;0.73;;;;;;;;;;5066739;28;20115;-76
2023/06/03 12:54:05;;;;;;;2.65;1.00;;;;;;;;;;5052230;28;20115;-76
2023/06/03 12:56:32;;;;;;;6.03;0.98;;;;;;;;;;5059198;28;20090;-76
2023/06/03 12:58:58;;;;;;;5.55;1.13;;;;;;;;;;5063322;28;20052;-75
2023/06/03 13:01:24;;;;;;;4.97;0.80;;;;;;;;;;5053196;28;20031;-75
2023/06/03 13:03:54;;;;;;;4.55;1.17;;;;;;;;;;5072198;28;20025;-75
2023/06/03 13:06:20;;;;;;;4.57;0.77;;;;;;;;;;5055970;28;20551;-75
2023/06/03 13:08:48;;;;;;;3.83;0.80;;;;;;;;;;5055109;28;20513;-76
2023/06/03 13:11:17;;;;;;;2.65;0.85;;;;;;;;;;5051995;28;20059;-77
2023/06/03 13:13:45;;;;;;;10.55;1.15;;;;;;;;;;5071855;28;20516;-77
2023/06/03 13:16:11;;;;;;;3.22;1.00;;;;;;;;;;5068642;28;20017;-75
2023/06/03 13:18:37;;;;;;;4.47;1.30;;;;;;;;;;5063270;28;20032;-78
2023/06/03 13:21:03;;;;;;;2.78;0.70;;;;;;;;;;5070551;28;20052;-78
2023/06/03 13:23:30;;;;;;;3.85;0.77;;;;;;;;;;5071356;28;20024;-78
2023/06/03 13:25:56;;;;;;;1.45;0.52;;;;;;;;;;5071157;28;20141;-77
2023/06/03 13:28:22;;;;;;;3.10;0.88;;;;;;;;;;5059722;28;20475;-78
2023/06/03 13:30:51;;;;;;;3.60;0.90;;;;;;;;;;5069377;28;20048;-78
2023/06/03 13:33:17;;;;;;;2.03;0.70;;;;;;;;;;5067247;28;20036;-77
2023/06/03 13:35:44;;;;;;;2.60;0.70;;;;;;;;;;5069684;28;20060;-78
2023/06/03 13:38:11;;;;;;;1.50;0.60;;;;;;;;;;5060588;28;20479;-78
2023/06/03 13:40:38;;;;;;;3.20;0.88;;;;;;;;;;5063714;28;20056;-78
2023/06/03 13:43:04;;;;;;;1.63;0.60;;;;;;;;;;5061393;28;20097;-76
2023/06/03 13:45:30;;;;;;;3.03;0.65;;;;;;;;;;5046513;28;20085;-78
2023/06/03 13:47:56;;;;;;;1.90;0.70;;;;;;;;;;5059853;28;20075;-76
2023/06/03 13:50:22;;;;;;;2.25;0.40;;;;;;;;;;5066240;28;20043;-79
2023/06/03 13:52:49;;;;;;;1.73;0.50;;;;;;;;;;5068592;28;20040;-79
2023/06/03 13:55:15;;;;;;;2.05;0.50;;;;;;;;;;5064459;28;20060;-81
2023/06/03 13:57:41;;;;;;;3.63;0.70;;;;;;;;;;5061680;28;20033;-76
2023/06/03 14:00:08;;;;;;;3.05;0.90;;;;;;;;;;5051976;28;20044;-79
2023/06/03 14:02:34;;;;;;;2.92;0.50;;;;;;;;;;5070261;28;20544;-77
2023/06/03 14:05:00;;;;;;;7.43;0.90;;;;;;;;;;5052299;28;20155;-78
2023/06/03 14:07:26;;;;;;;2.35;0.63;;;;;;;;;;5038957;28;20128;-77
2023/06/03 14:09:52;;;;;;;2.78;0.60;;;;;;;;;;5065995;28;20040;-78
2023/06/03 14:12:19;;;;;;;2.33;0.88;;;;;;;;;;5067851;28;20039;-75
2023/06/03 14:14:45;;;;;;;3.28;0.70;;;;;;;;;;5063870;28;20039;-77
2023/06/03 14:17:11;;;;;;;0.95;0.55;;;;;;;;;;5064587;28;20461;-78
2023/06/03 14:19:37;;;;;;;3.78;0.52;;;;;;;;;;5070651;28;20028;-79
2023/06/03 14:22:03;;;;;;;2.92;0.60;;;;;;;;;;5041304;28;20032;-77
2023/06/03 14:24:29;;;;;;;2.35;0.77;;;;;;;;;;5069668;28;20086;-76
2023/06/03 14:26:55;;;;;;;3.70;0.63;;;;;;;;;;5073972;28;20026;-81
2023/06/03 14:29:21;;;;;;;2.53;0.70;;;;;;;;;;5056336;28;20044;-77
2023/06/03 14:31:48;;;;;;;2.35;0.50;;;;;;;;;;5067521;28;20060;-78
2023/06/03 14:34:14;;;;;;;1.65;0.70;;;;;;;;;;5064760;28;20038;-79
2023/06/03 14:36:40;;;;;;;2.47;0.50;;;;;;;;;;5050513;28;20021;-81
2023/06/03 14:39:06;;;;;;;7.32;0.52;;;;;;;;;;5050629;28;20103;-78
2023/06/03 14:41:32;;;;;;;2.25;0.60;;;;;;;;;;5053881;28;20476;-78
2023/06/03 14:43:58;;;;;;;3.55;1.00;;;;;;;;;;5049444;28;20029;-77
2023/06/03 14:46:24;;;;;;;3.20;0.77;;;;;;;;;;5050088;28;20052;-80
2023/06/03 14:48:50;;;;;;;1.25;0.57;;;;;;;;;;5049562;28;20111;-78